x

South Kodiak - 310nm Ssw Of Kodiak, Ak (46066) Wave Buoy

7:50pm - Thu 30th Mar 2017 All times are UTC.

  • Sig Wave height 13.1ft
  • Swell Direction
  • Peak Period 11s
  • Average Period 8s
  • Wind
    25mph, 29mph gusts
  • Sea Temp 38°f
  • Air Temp 41°f
  • Sea Pressure 975.4mb

More Historic Weather Station data

Upgrade to MSW Pro to gain access to the past 30 days of data for over 8000 Wavebouys and Weather Stations around the globe.

Join Pro

Comparision Forecast

View Surf forecast
   
Thu 03/30 7:50pm 13ft 11s 8s 25 29 mph 975.4mb 38f 41f
6:50pm 16.5ft 11s 8s 22 27 mph 975mb 38f 40f
5:50pm 13ft 11s 8s 22 27 mph 974.6mb 38f 40f
4:50pm 17ft 11s 9s 22 29 mph 974.6mb 38f 40f
3:50pm 15.5ft 11s 8s 22 27 mph 974.6mb 38f 40f
2:50pm 16.5ft 10s 8s 22 27 mph 974.6mb 38f 40f
1:50pm 15.5ft 10s 8s 22 27 mph 974.9mb 38f 40f
12:50pm 14ft 9s 7s 22 27 mph 975.4mb 38f 40f
11:50am 15.5ft 9s 7s 27 34 mph 976.4mb 38f 40f
10:50am 15.5ft 9s 7s 34 43 mph 977.9mb 38f 38f
9:50am 14ft 8s 7s 40 54 mph 980.6mb 38f 36f
8:50am 12.5ft 7s 7s 38 54 mph 983.6mb 38f 36f
7:50am 11ft 7s 6s 40 47 mph 987.8mb 38f 36f
6:50am 10ft 7s 6s 34 40 mph 991.7mb 38f 38f
5:50am 8.5ft 6s 6s 31 38 mph 994mb 38f 38f
4:50am 8.5ft 6s 6s 29 38 mph 997.2mb 38f 38f
3:50am 9ft 12s 6s 27 34 mph 999.7mb 38f 38f
2:50am 7.5ft 11s 6s 27 34 mph 1002mb 38f 38f
1:50am 8ft 12s 6s 25 31 mph 1003.7mb 38f 38f
12:50am 8ft 13s 7s 25 29 mph 1004.8mb 38f 37f
Wed 03/29 11:50pm 8ft 13s 7s 22 29 mph 1006.7mb 38f 37f
10:50pm 8ft 12s 8s 20 25 mph 1007.7mb 38f 37f
9:50pm 8ft 13s 8s 20 22 mph 1009.5mb 38f 37f
8:50pm 8ft 13s 8s 18 20 mph 1009.2mb 38f 36f
7:50pm 8ft 12s 8s 13 18 mph 1009.8mb 38f 37f
6:50pm 8.5ft 12s 9s 11 16 mph 1010.5mb 38f 36f
5:50pm 7.5ft 13s 8s 7 9 mph 1010.7mb 38f 37f
4:50pm 8ft 14s 9s 4 7 mph 1010.4mb 38f 36f
3:50pm 9ft 11s 9s 2 4 mph 1010.1mb 38f 35f
2:50pm 9ft 14s 9s 2 4 mph 1009.6mb 38f 35f
1:50pm 8.5ft 12s 9s 4 7 mph 1009.6mb 38f 35f
12:50pm 8.5ft 13s 9s 4 7 mph 1009.2mb 38f 35f
11:50am 9ft 14s 9s 4 7 mph 1008.9mb 38f 35f
10:50am 10ft 14s 9s 7 9 mph 1008.2mb 38f 36f
9:50am 9ft 14s 9s 9 11 mph 1007.6mb 38f 36f
8:50am 9ft 14s 8s 9 11 mph 1007.5mb 38f 36f
7:50am 9ft 14s 9s 11 16 mph 1006.9mb 38f 37f
6:50am 9.5ft 14s 8s 13 16 mph 1005.9mb 38f 37f
5:50am 9ft 15s 9s 11 16 mph 1005.3mb 38f 37f
4:50am 9ft 14s 8s 11 13 mph 1004.3mb 38f 37f
3:50am 9ft 13s 9s 13 18 mph 1003.2mb 38f 38f
2:50am 9ft 12s 9s 11 16 mph 1002.3mb 38f 37f
1:50am 9ft 13s 8s 13 16 mph 1001.7mb 38f 37f
12:50am 9ft 12s 8s 13 18 mph 1000.9mb 38f 37f
Tue 03/28 11:50pm 9ft 13s 9s 13 16 mph 1000.4mb 38f 37f
10:50pm 9ft 13s 8s 13 16 mph 999.9mb 38f 37f
9:50pm 8.5ft 12s 8s 9 13 mph 999.5mb 38f 38f
8:50pm 8ft 13s 8s 7 9 mph 999.1mb 38f 37f
7:50pm 8ft 13s 8s 7 11 mph 998.4mb 38f 37f
6:50pm 9ft 10s 9s 9 11 mph 997.7mb 38f 37f
5:50pm 9ft 12s 8s 7 11 mph 997.3mb 38f 37f
2:50pm 9.5ft 11s 9s 11 13 mph 995.5mb 38f 38f
1:50pm 11ft 11s 9s 11 13 mph 995mb 38f 38f
12:50pm 11.5ft 12s 9s 9 13 mph 994.8mb 38f 38f
11:50am 12.5ft 12s 9s 9 13 mph 994.3mb 38f 38f
10:50am 12ft 14s 9s 7 11 mph 994.1mb 38f 38f
9:50am 12.5ft 14s 9s 7 11 mph 993.7mb 38f 38f
8:50am 11.5ft 14s 9s 7 9 mph 993.3mb 38f 38f
7:50am 10.5ft 14s 9s 7 9 mph 993.1mb 38f 38f
6:50am 10.5ft 13s 9s 4 7 mph 992.8mb 38f 38f
5:50am 11.5ft 14s 9s 4 7 mph 992.4mb 38f 38f
4:50am 12ft 14s 10s 4 7 mph 992.1mb 38f 38f
3:50am 10ft 14s 9s 7 9 mph 991.7mb 38f 39f
2:50am 11ft 11s 9s 7 11 mph 991.4mb 38f 39f
1:50am 11ft 15s 9s 9 11 mph 991.3mb 38f 39f
12:50am 14.5ft 13s 10s 11 16 mph 991.5mb 38f 39f
Mon 03/27 11:50pm 14.5ft 14s 9s 13 16 mph 991.4mb 38f 39f
10:50pm 14.5ft 15s 9s 16 20 mph 991.4mb 38f 39f
9:50pm 15.5ft 15s 9s 13 18 mph 991.2mb 38f 39f
8:50pm 14ft 13s 9s 16 20 mph 991.2mb 38f 39f
7:50pm 16ft 15s 10s 18 22 mph 991mb 38f 39f
6:50pm 15.5ft 15s 10s 18 22 mph 990.5mb 38f 39f
5:50pm 17.5ft 15s 10s 18 22 mph 990.3mb 38f 39f
4:50pm 14ft 15s 9s 16 22 mph 990mb 38f 39f
3:50pm 15ft 16s 9s 20 25 mph 989.6mb 38f 39f
2:50pm 14ft 15s 9s 18 22 mph 989.6mb 38f 39f
1:50pm 12ft 15s 8s 18 20 mph 989.4mb 38f 39f
12:50pm 12ft 16s 8s 18 22 mph 989.4mb 38f 39f
11:50am 12.5ft 15s 9s 18 20 mph 989.4mb 38f 39f
10:50am 12.5ft 15s 9s 20 27 mph 989.2mb 38f 39f
9:50am 13.5ft 16s 9s 18 22 mph 989.2mb 38f 39f
8:50am 15ft 15s 10s 18 25 mph 989mb 38f 39f
7:50am 13.5ft 16s 9s 13 16 mph 989.2mb 38f 38f
6:50am 14ft 15s 8s 16 20 mph 989.3mb 38f 37f
5:50am 13.5ft 16s 9s 25 31 mph 989.6mb 38f 36f
4:50am 14ft 16s 9s 25 29 mph 990.5mb 38f 35f
3:50am 13ft 17s 9s 25 31 mph 991.3mb 38f 34f
2:50am 12ft 17s 9s 25 31 mph 992.4mb 38f 34f
1:50am 13.5ft 17s 10s 25 29 mph 993.7mb 38f 34f
12:50am 14ft 15s 10s 20 29 mph 995.3mb 38f 34f
Sun 03/26 11:50pm 12ft 16s 10s 20 29 mph 996.5mb 38f 37f
10:50pm 15ft 15s 11s 20 25 mph 997.4mb 38f 37f
9:50pm 15.5ft 16s 11s 20 25 mph 998.6mb 38f 37f